Time;durP1;ratioP1;P1;durP2;ratioP2;P2;SDS_P1;SDS_P2;PMS_P1;PMS_P2;Temp;Humidity;BMP_temperature;BMP_pressure;BME280_temperature;BME280_humidity;BME280_pressure;Samples;Min_cycle;Max_cycle;Signal;HPM_P1;HPM_P2
2022/11/26 00:00:26;;;;;;;57.50;21.83;;;;;;;;;;6309694;22;20481;-70
2022/11/26 00:02:53;;;;;;;50.77;20.90;;;;;;;;;;6309821;22;20168;-72
2022/11/26 00:05:19;;;;;;;48.37;21.00;;;;;;;;;;6308239;22;20532;-71
2022/11/26 00:07:50;;;;;;;43.87;21.77;;;;;;;;;;6309882;22;20156;-71
2022/11/26 00:10:19;;;;;;;66.23;24.93;;;;;;;;;;6310417;22;20148;-71
2022/11/26 00:12:45;;;;;;;94.60;34.97;;;;;;;;;;6308525;22;20188;-72
2022/11/26 00:15:15;;;;;;;69.10;26.50;;;;;;;;;;6310505;22;20215;-69
2022/11/26 00:17:41;;;;;;;62.37;26.67;;;;;;;;;;6310881;22;20544;-71
2022/11/26 00:20:07;;;;;;;70.47;30.77;;;;;;;;;;6310227;22;20144;-70
2022/11/26 00:22:37;;;;;;;56.53;23.70;;;;;;;;;;6308525;22;20249;-70
2022/11/26 00:25:03;;;;;;;62.60;24.23;;;;;;;;;;6310303;22;20204;-69
2022/11/26 00:27:29;;;;;;;71.40;25.80;;;;;;;;;;6309659;22;20144;-69
2022/11/26 00:29:55;;;;;;;63.13;24.87;;;;;;;;;;6288369;22;20156;-70
2022/11/26 00:32:23;;;;;;;56.27;23.83;;;;;;;;;;6315935;22;20172;-70
2022/11/26 00:34:49;;;;;;;54.60;23.67;;;;;;;;;;6288652;22;20179;-70
2022/11/26 00:37:23;;;;;;;69.83;26.03;;;;;;;;;;6286086;22;20188;-69
2022/11/26 00:39:50;;;;;;;51.83;23.27;;;;;;;;;;6310592;22;20149;-70
2022/11/26 00:42:16;;;;;;;52.33;23.30;;;;;;;;;;6281581;22;20170;-69
2022/11/26 00:44:42;;;;;;;56.87;23.47;;;;;;;;;;6308798;22;20198;-69
2022/11/26 00:47:09;;;;;;;49.67;24.67;;;;;;;;;;6281190;22;20201;-68
2022/11/26 00:49:35;;;;;;;45.67;23.07;;;;;;;;;;6281307;22;20516;-68
2022/11/26 00:52:01;;;;;;;59.30;23.97;;;;;;;;;;6308755;22;20215;-70
2022/11/26 00:54:27;;;;;;;56.47;23.00;;;;;;;;;;6280975;22;20222;-70
2022/11/26 00:56:53;;;;;;;55.03;23.23;;;;;;;;;;6309340;22;20148;-70
2022/11/26 00:59:20;;;;;;;65.20;25.43;;;;;;;;;;6280856;22;20605;-70
2022/11/26 01:01:46;;;;;;;72.70;28.37;;;;;;;;;;6280947;22;20157;-70
2022/11/26 01:04:12;;;;;;;98.77;34.07;;;;;;;;;;6308755;22;20183;-70
2022/11/26 01:06:39;;;;;;;61.97;27.20;;;;;;;;;;6308444;22;20496;-70
2022/11/26 01:09:06;;;;;;;59.77;26.73;;;;;;;;;;6308061;22;20152;-70
2022/11/26 01:11:32;;;;;;;59.50;25.60;;;;;;;;;;6281533;22;20180;-70
2022/11/26 01:13:58;;;;;;;58.87;23.77;;;;;;;;;;6280540;22;20187;-70
2022/11/26 01:16:24;;;;;;;53.87;25.03;;;;;;;;;;6307995;22;20192;-69
2022/11/26 01:18:51;;;;;;;52.70;23.30;;;;;;;;;;6280476;22;20153;-70
2022/11/26 01:21:17;;;;;;;56.10;23.63;;;;;;;;;;6280584;22;20163;-68
2022/11/26 01:23:43;;;;;;;52.00;22.90;;;;;;;;;;6307955;22;20231;-70
2022/11/26 01:26:14;;;;;;;55.10;21.03;;;;;;;;;;6307634;22;20184;-70
2022/11/26 01:28:40;;;;;;;54.67;23.27;;;;;;;;;;6308234;22;20149;-70
2022/11/26 01:31:08;;;;;;;51.17;22.97;;;;;;;;;;6307966;22;20513;-70
2022/11/26 01:33:34;;;;;;;52.70;22.43;;;;;;;;;;6307926;22;20237;-70
2022/11/26 01:35:59;;;;;;;50.17;22.30;;;;;;;;;;6307971;22;20164;-70
2022/11/26 01:38:25;;;;;;;48.40;20.60;;;;;;;;;;6308313;22;20145;-70
2022/11/26 01:41:01;;;;;;;47.27;22.13;;;;;;;;;;6280527;22;20157;-70
2022/11/26 01:43:29;;;;;;;48.00;21.03;;;;;;;;;;6280210;22;20183;-70
2022/11/26 01:45:55;;;;;;;47.90;21.20;;;;;;;;;;6308017;22;20169;-70
2022/11/26 01:48:29;;;;;;;56.40;21.23;;;;;;;;;;6280261;22;20235;-70
2022/11/26 01:51:03;;;;;;;47.57;20.70;;;;;;;;;;6307507;22;20171;-70
2022/11/26 01:53:31;;;;;;;50.50;20.30;;;;;;;;;;6307582;22;20148;-70
2022/11/26 01:55:59;;;;;;;47.20;20.63;;;;;;;;;;6307749;22;20165;-70
2022/11/26 01:58:28;;;;;;;46.37;21.27;;;;;;;;;;6279989;22;20152;-70
2022/11/26 02:00:54;;;;;;;45.87;21.33;;;;;;;;;;6308091;22;20148;-70
2022/11/26 02:03:21;;;;;;;47.03;20.97;;;;;;;;;;6307431;22;20152;-70
2022/11/26 02:05:51;;;;;;;57.87;20.20;;;;;;;;;;6307628;22;20557;-70
2022/11/26 02:08:17;;;;;;;61.87;21.83;;;;;;;;;;6307727;22;20559;-70
2022/11/26 02:10:43;;;;;;;54.00;21.33;;;;;;;;;;6307601;22;20160;-70
2022/11/26 02:13:09;;;;;;;52.87;21.33;;;;;;;;;;6307388;22;20153;-70
2022/11/26 02:15:43;;;;;;;50.07;20.23;;;;;;;;;;6279819;22;20263;-70
2022/11/26 02:18:09;;;;;;;54.40;20.93;;;;;;;;;;6280036;22;20156;-70
2022/11/26 02:20:53;;;;;;;50.90;20.37;;;;;;;;;;6279962;22;20184;-70
2022/11/26 02:23:34;;;;;;;54.73;21.13;;;;;;;;;;6307273;22;20139;-69
2022/11/26 02:26:19;;;;;;;39.00;18.93;;;;;;;;;;6279662;22;20245;-70
2022/11/26 02:28:51;;;;;;;55.17;19.70;;;;;;;;;;6279947;22;20530;-70
2022/11/26 02:31:26;;;;;;;40.63;18.50;;;;;;;;;;6307180;22;20168;-70
2022/11/26 02:34:05;;;;;;;43.23;20.27;;;;;;;;;;6307490;22;20144;-70
2022/11/26 02:36:33;;;;;;;55.20;21.17;;;;;;;;;;6307396;22;20586;-70
2022/11/26 02:39:10;;;;;;;54.17;22.17;;;;;;;;;;6279888;22;20159;-70
2022/11/26 02:41:46;;;;;;;65.27;29.67;;;;;;;;;;6307928;22;20588;-72
2022/11/26 02:44:14;;;;;;;73.97;32.53;;;;;;;;;;6307225;22;20222;-70
2022/11/26 02:46:41;;;;;;;71.90;32.33;;;;;;;;;;6279922;22;20243;-69
2022/11/26 02:49:09;;;;;;;54.23;27.53;;;;;;;;;;6307095;22;20469;-70
2022/11/26 02:51:35;;;;;;;58.17;31.57;;;;;;;;;;6279657;22;20176;-70
2022/11/26 02:54:01;;;;;;;53.43;25.77;;;;;;;;;;6279893;22;20160;-70
2022/11/26 02:56:28;;;;;;;52.27;22.83;;;;;;;;;;6281705;22;20159;-70
2022/11/26 02:58:54;;;;;;;56.90;23.93;;;;;;;;;;6309161;22;20183;-70
2022/11/26 03:01:37;;;;;;;49.33;25.40;;;;;;;;;;6309287;22;20153;-70
2022/11/26 03:04:09;;;;;;;52.27;25.50;;;;;;;;;;6309578;22;20168;-70
2022/11/26 03:06:35;;;;;;;45.07;22.10;;;;;;;;;;6309301;22;20176;-70
2022/11/26 03:09:01;;;;;;;50.57;20.57;;;;;;;;;;6309998;22;20149;-70
2022/11/26 03:11:27;;;;;;;44.57;19.30;;;;;;;;;;6309808;22;20172;-70
2022/11/26 03:13:53;;;;;;;39.00;18.23;;;;;;;;;;6309113;22;20152;-69
2022/11/26 03:16:19;;;;;;;56.03;20.00;;;;;;;;;;6281611;22;20155;-70
2022/11/26 03:18:45;;;;;;;56.97;20.17;;;;;;;;;;6309206;22;20148;-70
2022/11/26 03:21:11;;;;;;;51.23;20.23;;;;;;;;;;6281800;22;20153;-70
2022/11/26 03:23:36;;;;;;;52.57;18.90;;;;;;;;;;6309755;22;20183;-70
2022/11/26 03:26:02;;;;;;;45.63;19.23;;;;;;;;;;6308919;22;20634;-68
2022/11/26 03:28:29;;;;;;;45.23;19.93;;;;;;;;;;6309072;22;20590;-69
2022/11/26 03:30:55;;;;;;;53.53;20.97;;;;;;;;;;6281484;22;20163;-70
2022/11/26 03:33:20;;;;;;;51.47;24.67;;;;;;;;;;6308890;22;20223;-70
2022/11/26 03:35:48;;;;;;;54.10;21.93;;;;;;;;;;6281508;22;20176;-70
2022/11/26 03:38:14;;;;;;;46.87;22.73;;;;;;;;;;6309251;22;20152;-70
2022/11/26 03:40:40;;;;;;;52.07;23.27;;;;;;;;;;6281559;22;20248;-70
2022/11/26 03:43:06;;;;;;;58.03;24.43;;;;;;;;;;6281500;22;20199;-70
2022/11/26 03:45:32;;;;;;;57.63;22.17;;;;;;;;;;6308858;22;20521;-69
2022/11/26 03:47:58;;;;;;;54.30;24.23;;;;;;;;;;6309192;22;20184;-70
2022/11/26 03:50:24;;;;;;;64.93;29.50;;;;;;;;;;6308850;22;20149;-68
2022/11/26 03:52:50;;;;;;;72.47;29.20;;;;;;;;;;6281418;22;20180;-70
2022/11/26 03:55:16;;;;;;;56.13;28.00;;;;;;;;;;6281264;22;20180;-70
2022/11/26 03:57:42;;;;;;;67.50;28.27;;;;;;;;;;6308751;22;20152;-70
2022/11/26 04:00:08;;;;;;;61.53;26.87;;;;;;;;;;6281252;22;20153;-69
2022/11/26 04:02:35;;;;;;;64.33;26.40;;;;;;;;;;6281137;22;20265;-70
2022/11/26 04:05:01;;;;;;;49.63;25.23;;;;;;;;;;6281203;22;20274;-70
2022/11/26 04:07:27;;;;;;;58.97;28.43;;;;;;;;;;6280770;22;20602;-70
2022/11/26 04:09:53;;;;;;;60.77;26.90;;;;;;;;;;6281289;22;20171;-70
2022/11/26 04:12:18;;;;;;;59.70;26.77;;;;;;;;;;6281189;22;20690;-70
2022/11/26 04:14:44;;;;;;;56.57;26.67;;;;;;;;;;6308812;22;20503;-70
2022/11/26 04:17:11;;;;;;;68.87;28.50;;;;;;;;;;6308951;22;20199;-70
2022/11/26 04:19:36;;;;;;;60.93;26.87;;;;;;;;;;6308399;22;20228;-70
2022/11/26 04:22:02;;;;;;;60.37;27.43;;;;;;;;;;6281169;22;20192;-70
2022/11/26 04:24:28;;;;;;;74.23;27.83;;;;;;;;;;6308506;22;20226;-70
2022/11/26 04:26:54;;;;;;;58.57;26.70;;;;;;;;;;6308703;22;20453;-70
2022/11/26 04:29:20;;;;;;;61.20;24.70;;;;;;;;;;6280972;22;20163;-70
2022/11/26 04:31:46;;;;;;;56.33;25.13;;;;;;;;;;6308238;22;20214;-70
2022/11/26 04:34:12;;;;;;;61.37;26.20;;;;;;;;;;6308298;22;20168;-67
2022/11/26 04:36:38;;;;;;;61.90;24.00;;;;;;;;;;6308562;22;20160;-68
2022/11/26 04:39:04;;;;;;;60.43;23.83;;;;;;;;;;6308421;22;20487;-68
2022/11/26 04:41:30;;;;;;;54.30;23.50;;;;;;;;;;6281073;22;20187;-69
2022/11/26 04:43:56;;;;;;;54.60;23.00;;;;;;;;;;6280897;22;20168;-70
2022/11/26 04:46:22;;;;;;;56.17;24.03;;;;;;;;;;6309073;22;20149;-69
2022/11/26 04:48:48;;;;;;;64.90;23.57;;;;;;;;;;6308572;22;20148;-70
2022/11/26 04:51:14;;;;;;;56.47;23.30;;;;;;;;;;6308214;22;20175;-70
2022/11/26 04:53:40;;;;;;;64.60;23.87;;;;;;;;;;6280863;22;20238;-69
2022/11/26 04:56:06;;;;;;;52.60;22.83;;;;;;;;;;6280868;22;20634;-70
2022/11/26 04:58:32;;;;;;;57.77;23.57;;;;;;;;;;6308391;22;20148;-70
2022/11/26 05:00:58;;;;;;;57.63;22.57;;;;;;;;;;6308115;22;20167;-70
2022/11/26 05:03:24;;;;;;;52.83;23.63;;;;;;;;;;6308155;22;20145;-70
2022/11/26 05:05:50;;;;;;;60.00;23.03;;;;;;;;;;6280522;22;20599;-70
2022/11/26 05:08:16;;;;;;;51.00;22.80;;;;;;;;;;6307933;22;20610;-70
2022/11/26 05:10:42;;;;;;;59.40;23.70;;;;;;;;;;6280461;22;20561;-68
2022/11/26 05:13:08;;;;;;;64.53;22.77;;;;;;;;;;6280323;22;20188;-69
2022/11/26 05:15:34;;;;;;;53.30;22.83;;;;;;;;;;6307825;22;20173;-70
2022/11/26 05:18:00;;;;;;;57.70;23.20;;;;;;;;;;6307706;22;20646;-70
2022/11/26 05:20:26;;;;;;;56.50;23.43;;;;;;;;;;6280178;22;20156;-70
2022/11/26 05:22:52;;;;;;;68.03;25.00;;;;;;;;;;6307967;22;20152;-70
2022/11/26 05:25:18;;;;;;;48.53;23.20;;;;;;;;;;6307496;22;20211;-70
2022/11/26 05:27:44;;;;;;;45.80;23.40;;;;;;;;;;6308399;22;20575;-69
2022/11/26 05:30:10;;;;;;;56.20;23.07;;;;;;;;;;6307723;22;20148;-70
2022/11/26 05:32:36;;;;;;;58.70;23.20;;;;;;;;;;6307709;22;20217;-70
2022/11/26 05:35:02;;;;;;;60.63;23.83;;;;;;;;;;6307779;22;20222;-69
2022/11/26 05:37:28;;;;;;;63.17;23.80;;;;;;;;;;6280391;22;20159;-70
2022/11/26 05:39:54;;;;;;;53.10;22.13;;;;;;;;;;6280328;22;20231;-70
2022/11/26 05:42:20;;;;;;;49.80;21.03;;;;;;;;;;6308333;22;20176;-70
2022/11/26 05:44:46;;;;;;;54.10;21.53;;;;;;;;;;6308038;22;20167;-70
2022/11/26 05:47:12;;;;;;;54.80;24.07;;;;;;;;;;6280284;22;20188;-70
2022/11/26 05:49:37;;;;;;;59.07;19.90;;;;;;;;;;6280291;22;20163;-70
2022/11/26 05:52:03;;;;;;;55.57;20.00;;;;;;;;;;6280052;22;20180;-70
2022/11/26 05:54:29;;;;;;;64.37;21.90;;;;;;;;;;6308881;22;20169;-69
2022/11/26 05:56:56;;;;;;;60.90;20.90;;;;;;;;;;6308321;22;20601;-70
2022/11/26 05:59:22;;;;;;;58.73;20.87;;;;;;;;;;6281505;22;20229;-70
2022/11/26 06:01:48;;;;;;;60.77;21.60;;;;;;;;;;6311709;22;20591;-70
2022/11/26 06:04:14;;;;;;;51.27;20.37;;;;;;;;;;6288836;22;20271;-69
2022/11/26 06:06:40;;;;;;;55.20;20.47;;;;;;;;;;6318123;22;20174;-69
2022/11/26 06:09:06;;;;;;;56.43;20.37;;;;;;;;;;6316817;22;20152;-70
2022/11/26 06:11:32;;;;;;;54.53;21.17;;;;;;;;;;6307777;22;20244;-70
2022/11/26 06:13:58;;;;;;;55.97;21.80;;;;;;;;;;6307512;22;20152;-70
2022/11/26 06:16:24;;;;;;;55.37;21.10;;;;;;;;;;6280202;22;20527;-69
2022/11/26 06:18:50;;;;;;;62.50;20.53;;;;;;;;;;6307451;22;20598;-69
2022/11/26 06:21:16;;;;;;;66.20;20.13;;;;;;;;;;6280325;22;20502;-70
2022/11/26 06:23:42;;;;;;;61.23;20.70;;;;;;;;;;6307406;22;20157;-70
2022/11/26 06:26:09;;;;;;;45.33;18.93;;;;;;;;;;6307135;22;20195;-70
2022/11/26 06:28:35;;;;;;;53.57;19.63;;;;;;;;;;6307851;22;20175;-70
2022/11/26 06:31:01;;;;;;;54.47;19.60;;;;;;;;;;6306981;22;20555;-69
2022/11/26 06:33:27;;;;;;;57.57;20.70;;;;;;;;;;6279823;22;20175;-70
2022/11/26 06:35:57;;;;;;;55.63;20.20;;;;;;;;;;6307065;22;20168;-69
2022/11/26 06:38:23;;;;;;;50.53;20.03;;;;;;;;;;6307605;22;20186;-69
2022/11/26 06:40:56;;;;;;;45.50;19.33;;;;;;;;;;6307183;22;20148;-70
2022/11/26 06:43:22;;;;;;;56.63;19.73;;;;;;;;;;6279901;22;20144;-69
2022/11/26 06:45:48;;;;;;;58.03;20.80;;;;;;;;;;6307905;22;20169;-70
2022/11/26 06:48:14;;;;;;;59.00;20.70;;;;;;;;;;6280800;22;20529;-70
2022/11/26 06:50:40;;;;;;;59.20;22.23;;;;;;;;;;6279880;22;20530;-69
2022/11/26 06:53:06;;;;;;;55.17;22.10;;;;;;;;;;6279764;22;20195;-70
2022/11/26 06:55:32;;;;;;;63.27;25.20;;;;;;;;;;6307054;22;20172;-70
2022/11/26 06:57:57;;;;;;;75.23;22.93;;;;;;;;;;6280937;22;20471;-70
2022/11/26 07:00:23;;;;;;;59.47;22.00;;;;;;;;;;6307225;22;20203;-70
2022/11/26 07:02:49;;;;;;;59.80;21.97;;;;;;;;;;6279846;22;20248;-70
2022/11/26 07:05:15;;;;;;;57.13;22.80;;;;;;;;;;6307349;22;20494;-69
2022/11/26 07:07:41;;;;;;;68.63;24.13;;;;;;;;;;6308155;22;20588;-70
2022/11/26 07:10:07;;;;;;;66.23;24.30;;;;;;;;;;6307682;22;20152;-69
2022/11/26 07:12:33;;;;;;;56.80;22.77;;;;;;;;;;6280054;22;20267;-70
2022/11/26 07:14:59;;;;;;;63.00;23.63;;;;;;;;;;6307364;22;20587;-69
2022/11/26 07:17:27;;;;;;;64.93;21.93;;;;;;;;;;6307415;22;20590;-69
2022/11/26 07:19:52;;;;;;;64.40;24.17;;;;;;;;;;6280014;22;20225;-69
2022/11/26 07:22:18;;;;;;;67.20;24.07;;;;;;;;;;6279738;22;20598;-69
2022/11/26 07:24:44;;;;;;;61.17;23.57;;;;;;;;;;6279545;22;20246;-70
2022/11/26 07:27:10;;;;;;;60.00;22.73;;;;;;;;;;6307346;22;20152;-70
2022/11/26 07:29:36;;;;;;;59.20;23.77;;;;;;;;;;6307036;22;20206;-70
2022/11/26 07:32:02;;;;;;;66.03;23.43;;;;;;;;;;6307165;22;20226;-70
2022/11/26 07:34:28;;;;;;;52.77;23.77;;;;;;;;;;6307179;22;20168;-68
2022/11/26 07:36:54;;;;;;;60.97;23.63;;;;;;;;;;6279708;22;20151;-70
2022/11/26 07:39:20;;;;;;;55.73;22.60;;;;;;;;;;6307407;22;20153;-69
2022/11/26 07:41:46;;;;;;;69.63;24.33;;;;;;;;;;6280273;22;20160;-69
2022/11/26 07:44:13;;;;;;;57.90;22.83;;;;;;;;;;6281426;22;20191;-69
2022/11/26 07:46:39;;;;;;;60.83;24.77;;;;;;;;;;6281406;22;20156;-69
2022/11/26 07:49:05;;;;;;;66.27;24.90;;;;;;;;;;6308984;22;20175;-69
2022/11/26 07:51:31;;;;;;;58.03;24.03;;;;;;;;;;6309235;22;20172;-69
2022/11/26 07:53:59;;;;;;;65.10;23.73;;;;;;;;;;6281366;22;20155;-69
2022/11/26 07:56:25;;;;;;;50.93;22.23;;;;;;;;;;6309108;22;20224;-69
2022/11/26 07:58:52;;;;;;;61.53;29.10;;;;;;;;;;6308881;22;20605;-69
2022/11/26 08:01:19;;;;;;;65.23;24.10;;;;;;;;;;6309087;22;20235;-69
2022/11/26 08:03:46;;;;;;;61.83;23.43;;;;;;;;;;6308802;22;20156;-70
2022/11/26 08:06:13;;;;;;;68.17;23.00;;;;;;;;;;6281443;22;20259;-69
2022/11/26 08:08:39;;;;;;;55.40;23.57;;;;;;;;;;6281162;22;20152;-68
2022/11/26 08:11:11;;;;;;;52.90;23.27;;;;;;;;;;6308810;22;20227;-70
2022/11/26 08:13:36;;;;;;;64.23;24.37;;;;;;;;;;6308893;22;20586;-69
2022/11/26 08:16:02;;;;;;;59.83;23.17;;;;;;;;;;6308524;22;20267;-68
2022/11/26 08:18:28;;;;;;;63.33;23.57;;;;;;;;;;6308577;22;20145;-69
2022/11/26 08:20:57;;;;;;;56.47;24.60;;;;;;;;;;6281052;22;20473;-68
2022/11/26 08:23:24;;;;;;;58.50;23.60;;;;;;;;;;6308543;22;20160;-67
2022/11/26 08:25:51;;;;;;;55.23;24.17;;;;;;;;;;6280858;22;20641;-70
2022/11/26 08:28:17;;;;;;;62.87;24.80;;;;;;;;;;6308500;22;20227;-70
2022/11/26 08:30:43;;;;;;;68.13;26.67;;;;;;;;;;6308398;22;20149;-70
2022/11/26 08:33:09;;;;;;;60.60;26.87;;;;;;;;;;6308701;22;20260;-69
2022/11/26 08:35:35;;;;;;;52.40;26.77;;;;;;;;;;6308364;22;20168;-69
2022/11/26 08:38:01;;;;;;;60.53;27.93;;;;;;;;;;6308787;22;20144;-70
2022/11/26 08:40:27;;;;;;;63.17;28.13;;;;;;;;;;6308343;22;20148;-70
2022/11/26 08:42:53;;;;;;;60.80;26.47;;;;;;;;;;6280988;22;20598;-70
2022/11/26 08:45:19;;;;;;;69.17;27.10;;;;;;;;;;6280965;22;20180;-69
2022/11/26 08:47:45;;;;;;;59.27;26.30;;;;;;;;;;6308353;22;20149;-70
2022/11/26 08:50:11;;;;;;;61.57;25.80;;;;;;;;;;6281001;22;20152;-70
2022/11/26 08:52:37;;;;;;;61.50;25.93;;;;;;;;;;6280922;22;20230;-70
2022/11/26 08:55:03;;;;;;;64.47;26.27;;;;;;;;;;6308509;22;20172;-68
2022/11/26 08:57:29;;;;;;;59.60;26.97;;;;;;;;;;6308385;22;20257;-72
2022/11/26 08:59:55;;;;;;;56.53;24.83;;;;;;;;;;6308774;22;20179;-70
2022/11/26 09:02:22;;;;;;;62.03;25.23;;;;;;;;;;6306946;22;20168;-71
2022/11/26 09:04:48;;;;;;;56.00;24.27;;;;;;;;;;6308085;22;20157;-71
2022/11/26 09:07:14;;;;;;;49.47;24.50;;;;;;;;;;6308133;22;20207;-70
2022/11/26 09:09:40;;;;;;;55.67;24.97;;;;;;;;;;6308113;22;20231;-71
2022/11/26 09:12:06;;;;;;;51.00;24.30;;;;;;;;;;6308677;22;20200;-72
2022/11/26 09:14:39;;;;;;;54.17;23.97;;;;;;;;;;6306541;22;20156;-71
2022/11/26 09:17:08;;;;;;;47.53;22.23;;;;;;;;;;6308201;22;20194;-71
2022/11/26 09:19:35;;;;;;;43.80;22.90;;;;;;;;;;6306708;22;20159;-71
2022/11/26 09:22:01;;;;;;;56.87;22.90;;;;;;;;;;6308071;22;20533;-72
2022/11/26 09:24:27;;;;;;;50.03;22.93;;;;;;;;;;6307994;22;20148;-71
2022/11/26 09:26:52;;;;;;;48.10;22.70;;;;;;;;;;6306339;22;20163;-71
2022/11/26 09:29:19;;;;;;;49.17;23.40;;;;;;;;;;6307948;22;20218;-72
2022/11/26 09:31:46;;;;;;;52.90;23.87;;;;;;;;;;6307883;22;20626;-71
2022/11/26 09:34:12;;;;;;;51.53;24.27;;;;;;;;;;6308278;22;20172;-71
2022/11/26 09:36:38;;;;;;;47.53;24.10;;;;;;;;;;6307953;22;20149;-71
2022/11/26 09:39:05;;;;;;;42.53;22.93;;;;;;;;;;6307844;22;20172;-71
2022/11/26 09:41:33;;;;;;;41.40;21.03;;;;;;;;;;6308531;22;20152;-71
2022/11/26 09:44:06;;;;;;;46.00;21.80;;;;;;;;;;6307847;22;20152;-71
2022/11/26 09:46:36;;;;;;;47.67;21.47;;;;;;;;;;6306263;22;20240;-70
2022/11/26 09:49:03;;;;;;;42.17;21.60;;;;;;;;;;6306096;22;20217;-72
2022/11/26 09:51:29;;;;;;;38.43;23.10;;;;;;;;;;6307741;22;20230;-71
2022/11/26 09:53:55;;;;;;;49.17;22.03;;;;;;;;;;6306249;22;20156;-71
2022/11/26 09:56:24;;;;;;;54.57;22.47;;;;;;;;;;6308008;22;20149;-71
2022/11/26 09:59:00;;;;;;;45.77;20.07;;;;;;;;;;6307563;22;20184;-70
2022/11/26 10:01:26;;;;;;;42.93;20.13;;;;;;;;;;6307758;22;20148;-72
2022/11/26 10:03:52;;;;;;;42.10;20.03;;;;;;;;;;6307583;22;20213;-71
2022/11/26 10:06:21;;;;;;;33.27;18.33;;;;;;;;;;6306005;22;20152;-70
2022/11/26 10:08:59;;;;;;;43.37;18.80;;;;;;;;;;6307678;22;20176;-70
2022/11/26 10:11:41;;;;;;;37.33;17.53;;;;;;;;;;6308295;22;20168;-71
2022/11/26 10:14:25;;;;;;;29.17;15.10;;;;;;;;;;6307476;22;20688;-70
2022/11/26 10:17:15;;;;;;;31.70;15.67;;;;;;;;;;6307489;22;20154;-71
2022/11/26 10:20:00;;;;;;;27.17;13.93;;;;;;;;;;6306065;22;20171;-70
2022/11/26 10:22:34;;;;;;;29.60;13.93;;;;;;;;;;6307940;22;20148;-71
2022/11/26 10:25:02;;;;;;;30.53;14.47;;;;;;;;;;6306278;22;20156;-70
2022/11/26 10:27:31;;;;;;;24.97;12.97;;;;;;;;;;6307671;22;20234;-69
2022/11/26 10:30:03;;;;;;;24.20;12.83;;;;;;;;;;6307612;22;20530;-70
2022/11/26 10:32:28;;;;;;;24.67;11.30;;;;;;;;;;6306086;22;20184;-72
2022/11/26 10:34:56;;;;;;;25.03;11.33;;;;;;;;;;6307567;22;20179;-71
2022/11/26 10:37:23;;;;;;;23.97;10.97;;;;;;;;;;6307614;22;20164;-70
2022/11/26 10:39:49;;;;;;;25.73;11.40;;;;;;;;;;6307663;22;20155;-69
2022/11/26 10:42:19;;;;;;;28.03;10.83;;;;;;;;;;6307571;22;20148;-71
2022/11/26 10:44:46;;;;;;;21.07;10.27;;;;;;;;;;6307277;22;20155;-71
2022/11/26 10:47:20;;;;;;;23.73;9.73;;;;;;;;;;6307345;22;20618;-70
2022/11/26 10:49:46;;;;;;;18.50;9.60;;;;;;;;;;6305691;22;20557;-70
2022/11/26 10:52:14;;;;;;;22.13;9.97;;;;;;;;;;6307563;22;20172;-71
2022/11/26 10:54:40;;;;;;;25.07;9.80;;;;;;;;;;6307494;22;20149;-70
2022/11/26 10:57:09;;;;;;;19.30;9.10;;;;;;;;;;6307538;22;20523;-70
2022/11/26 10:59:44;;;;;;;20.50;8.93;;;;;;;;;;6307234;22;20224;-71
2022/11/26 11:02:19;;;;;;;25.67;9.50;;;;;;;;;;6307660;22;20211;-71
2022/11/26 11:04:47;;;;;;;18.03;9.00;;;;;;;;;;6305668;22;20155;-70
2022/11/26 11:07:28;;;;;;;22.87;8.70;;;;;;;;;;6305530;22;20229;-70
2022/11/26 11:10:09;;;;;;;25.40;9.17;;;;;;;;;;6305609;22;20678;-71
2022/11/26 11:12:36;;;;;;;21.10;9.07;;;;;;;;;;6307537;22;20179;-70
2022/11/26 11:15:13;;;;;;;21.47;8.93;;;;;;;;;;6305722;22;20157;-69
2022/11/26 11:17:39;;;;;;;22.43;8.50;;;;;;;;;;6308515;22;20213;-71
2022/11/26 11:20:14;;;;;;;18.40;8.73;;;;;;;;;;6309985;22;20227;-71
2022/11/26 11:22:41;;;;;;;18.50;8.07;;;;;;;;;;6310977;22;20155;-68
2022/11/26 11:25:31;;;;;;;25.73;8.97;;;;;;;;;;6308694;22;20629;-68
2022/11/26 11:28:02;;;;;;;22.63;8.40;;;;;;;;;;6318424;22;20187;-71
2022/11/26 11:30:31;;;;;;;19.70;8.47;;;;;;;;;;6309956;22;20148;-70
2022/11/26 11:33:08;;;;;;;16.23;8.87;;;;;;;;;;6308435;22;20235;-70
2022/11/26 11:35:34;;;;;;;19.87;9.17;;;;;;;;;;6309869;22;20160;-70
2022/11/26 11:38:00;;;;;;;21.87;9.70;;;;;;;;;;6309845;22;20259;-71
2022/11/26 11:40:32;;;;;;;26.57;9.07;;;;;;;;;;6307534;22;20187;-71
2022/11/26 11:42:59;;;;;;;18.37;9.33;;;;;;;;;;6307508;22;20215;-71
2022/11/26 11:45:48;;;;;;;23.40;8.73;;;;;;;;;;6308940;22;20152;-71
2022/11/26 11:48:45;;;;;;;23.13;8.57;;;;;;;;;;6307470;22;20180;-69
2022/11/26 11:51:36;;;;;;;25.20;10.00;;;;;;;;;;6290743;22;20175;-70
2022/11/26 11:54:10;;;;;;;19.73;8.50;;;;;;;;;;6307431;22;20141;-70
2022/11/26 11:56:39;;;;;;;27.70;9.70;;;;;;;;;;6307276;22;20501;-69
2022/11/26 11:59:15;;;;;;;22.17;9.63;;;;;;;;;;6307287;22;20248;-70
2022/11/26 12:01:50;;;;;;;25.73;8.97;;;;;;;;;;6309154;22;20586;-71
2022/11/26 12:04:40;;;;;;;21.77;8.37;;;;;;;;;;6309401;22;20555;-70
2022/11/26 12:07:18;;;;;;;47.20;32.37;;;;;;;;;;6307191;22;20239;-70
2022/11/26 12:09:48;;;;;;;18.17;7.70;;;;;;;;;;6309203;22;20171;-69
2022/11/26 12:12:46;;;;;;;16.57;8.50;;;;;;;;;;6308604;22;20203;-70
2022/11/26 12:15:17;;;;;;;22.43;9.13;;;;;;;;;;6266355;22;20199;-67
2022/11/26 12:18:03;;;;;;;22.07;8.40;;;;;;;;;;6309021;22;20622;-70
2022/11/26 12:20:38;;;;;;;22.37;8.67;;;;;;;;;;6309259;22;20457;-70
2022/11/26 12:23:14;;;;;;;17.80;8.67;;;;;;;;;;6308778;22;20152;-70
2022/11/26 12:25:40;;;;;;;19.03;8.63;;;;;;;;;;6314960;22;20148;-69
2022/11/26 12:28:16;;;;;;;21.50;8.97;;;;;;;;;;6308495;22;20175;-70
2022/11/26 12:30:55;;;;;;;18.40;8.17;;;;;;;;;;6307372;22;20571;-70
2022/11/26 12:33:30;;;;;;;23.47;8.13;;;;;;;;;;6308983;22;20207;-69
2022/11/26 12:35:58;;;;;;;18.73;8.10;;;;;;;;;;6309078;22;20139;-70
2022/11/26 12:38:34;;;;;;;18.00;8.30;;;;;;;;;;6307086;22;20522;-70
2022/11/26 12:41:05;;;;;;;20.50;7.97;;;;;;;;;;6308062;22;20172;-70
2022/11/26 12:43:40;;;;;;;20.87;8.03;;;;;;;;;;6307195;22;20491;-70
2022/11/26 12:46:14;;;;;;;16.00;7.33;;;;;;;;;;6308454;22;20177;-70
2022/11/26 12:48:47;;;;;;;18.30;8.43;;;;;;;;;;6306930;22;20175;-70
2022/11/26 12:51:51;;;;;;;19.43;8.10;;;;;;;;;;6308499;22;20153;-70
2022/11/26 12:54:28;;;;;;;24.80;7.83;;;;;;;;;;6214066;23;20154;-70
2022/11/26 12:56:59;;;;;;;23.40;8.20;;;;;;;;;;6214181;23;20193;-69
2022/11/26 12:59:49;;;;;;;22.13;8.53;;;;;;;;;;6255722;22;20605;-71
2022/11/26 13:02:22;;;;;;;19.77;7.57;;;;;;;;;;6307094;22;20283;-70
2022/11/26 13:04:49;;;;;;;21.97;8.23;;;;;;;;;;6308383;22;20543;-70
2022/11/26 13:07:15;;;;;;;20.43;7.87;;;;;;;;;;6306604;22;20184;-69
2022/11/26 13:10:10;;;;;;;29.93;9.17;;;;;;;;;;6308674;22;20474;-70
2022/11/26 13:12:44;;;;;;;22.03;8.83;;;;;;;;;;6288718;22;20226;-70
2022/11/26 13:15:17;;;;;;;17.50;7.83;;;;;;;;;;6306752;22;20163;-70
2022/11/26 13:17:45;;;;;;;22.37;7.67;;;;;;;;;;6306517;22;20179;-68
2022/11/26 13:20:14;;;;;;;20.00;9.03;;;;;;;;;;6306589;22;20551;-70
2022/11/26 13:22:46;;;;;;;20.97;8.30;;;;;;;;;;6308239;22;20156;-70
2022/11/26 13:25:29;;;;;;;24.47;9.07;;;;;;;;;;6308834;22;20460;-71
2022/11/26 13:28:14;;;;;;;21.27;8.53;;;;;;;;;;6309104;22;20697;-70
2022/11/26 13:31:03;;;;;;;20.23;9.50;;;;;;;;;;6306764;22;20160;-70
2022/11/26 13:34:08;;;;;;;23.50;9.43;;;;;;;;;;6308334;22;20137;-70
2022/11/26 13:36:46;;;;;;;20.73;7.53;;;;;;;;;;6213369;23;20165;-70
2022/11/26 13:39:30;;;;;;;19.20;7.73;;;;;;;;;;6213014;23;20177;-69
2022/11/26 13:42:11;;;;;;;24.13;7.73;;;;;;;;;;6266931;22;20168;-69
2022/11/26 13:45:00;;;;;;;19.23;8.13;;;;;;;;;;6306486;22;20605;-69
2022/11/26 13:47:26;;;;;;;20.37;8.03;;;;;;;;;;6308017;22;20172;-70
2022/11/26 13:49:57;;;;;;;23.10;9.00;;;;;;;;;;6308122;22;20485;-70
2022/11/26 13:52:28;;;;;;;26.53;9.63;;;;;;;;;;6306611;22;20619;-70
2022/11/26 13:55:01;;;;;;;24.33;9.00;;;;;;;;;;6306904;22;20153;-70
2022/11/26 13:57:32;;;;;;;26.83;9.70;;;;;;;;;;6307894;22;20214;-71
2022/11/26 13:59:58;;;;;;;21.13;10.00;;;;;;;;;;6307164;22;20126;-70
2022/11/26 14:02:33;;;;;;;26.87;10.23;;;;;;;;;;6307705;22;20274;-70
2022/11/26 14:05:05;;;;;;;19.63;8.90;;;;;;;;;;6308307;22;20273;-69
2022/11/26 14:07:31;;;;;;;20.20;8.17;;;;;;;;;;6308591;22;20221;-68
2022/11/26 14:09:58;;;;;;;30.63;9.00;;;;;;;;;;6307875;22;20207;-69
2022/11/26 14:12:44;;;;;;;22.83;7.60;;;;;;;;;;6306347;22;20188;-69
2022/11/26 14:15:29;;;;;;;19.87;7.43;;;;;;;;;;6307684;22;20152;-68
2022/11/26 14:17:55;;;;;;;17.80;6.83;;;;;;;;;;6307630;22;20176;-69
2022/11/26 14:20:21;;;;;;;24.10;7.50;;;;;;;;;;6308158;22;20148;-69
2022/11/26 14:22:47;;;;;;;23.90;8.23;;;;;;;;;;6308625;22;20175;-70
2022/11/26 14:25:13;;;;;;;16.77;7.13;;;;;;;;;;6308329;22;20243;-69
2022/11/26 14:27:46;;;;;;;18.60;6.97;;;;;;;;;;6306193;22;20255;-70
2022/11/26 14:30:12;;;;;;;26.90;6.93;;;;;;;;;;6306518;22;20183;-69
2022/11/26 14:32:38;;;;;;;20.00;6.63;;;;;;;;;;6307598;22;20206;-70